Dillon, MT (59725)

8:17 PM MDT on September 24, 2016 (GMT -0600)
Dillon | | Change Station

Elev 5207 ft 45.16 °N, 112.68 °W | Updated 14 seconds ago

Clear
Clear
47.3 °F
Feels Like 47 °F
N
2.7
Wind Variable Wind from West
Gusts 4.9 mph

Today
High -- | Low -- °F
--% Chance of Precip.
Yesterday
High -- | Low -- °F
Precip. -- in
Pressure 30.27 in
Visibility 10.0 miles
Clouds Clear
Windchill 47 °F
Dew Point 10 °F
Humidity 22%
Rainfall 0.00 in
Snow Depth Not available.
7:20 AM 7:23 PM
Waning Crescent, 32% visible
METAR KDLN 250153Z AUTO 00000KT 10SM CLR 10/M01 A3029 RMK AO2 SLP248 T01001011 $
Pressure 30.27 in
Visibility 10.0 miles
Clouds Clear
Windchill 47 °F
Dew Point 10 °F
Humidity 22%
Rainfall 0.00 in
Snow Depth Not available.
7:20 AM 7:23 PM
Waning Crescent, 32% visible
METAR KDLN 250153Z AUTO 00000KT 10SM CLR 10/M01 A3029 RMK AO2 SLP248 T01001011 $

10-Day Weather Forecast

Almanac

Astronomy

Sep. 24, 2016 Rise Set
Actual Time
Civil Twilight
Nautical Twilight
Astronomical Twilight
Moon
Length of Visible Light
Length of Day
Tomorrow will be .
, % of the Moon is Illuminated

Today's Extremes

State Highs State Lows

Community

WunderPhotos

Upload Photos

1,941,526 photos uploaded!

WunderBlog® & News

Nearby

Air Quality

  Air Quality AQ Index Pollutant
Not available.

Snow Depth

Station Depth Elevation

Earthquake Activity

City Distance Mag. Time & Date
Minimum magnitude displayed is 2.5.

Coastal Water Temperatures

Place Temperature

Stations

Nearby Weather Stations

Station Location Temp. Windchill Dew Point Humidity Wind Precip. Elev Updated Type
                   

Watches & Warnings

There are currently no watches in effect.